Terminal Aerodrome Forecast
Issued by NWS

Home | Current Version | Previous Version | Text Only | Print | Product List | Glossary On
Versions: 1 2 3 4 5 6 7 8 9 10 11 12 13 14 15 16 17 18 19
000
FTAK31 PAJN 291100 RRA
TAFAYA
TAF
PAYA 291142Z 2912/3012 06005KT P6SM VCSH SCT050 OVC100
     FM291800 VRB03KT P6SM VCSH SCT030 BKN060
     FM300000 VRB03KT P6SM VCSH BKN025 OVC050
     FM300600 00000KT P6SM VCSH SCT025 OVC050
      AMD LTD TO CLD VIS AND WIND 3001/3010=

USA.gov is the U.S. government's official web portal to all federal, state and local government web resources and services.